createdAt,value
2023-03-15T00:08:23.547Z,1.20
2023-03-15T00:18:29.801Z,1.30
2023-03-15T00:28:35.662Z,3.30
2023-03-15T00:38:44.155Z,0.70
2023-03-15T00:48:52.105Z,1.30
2023-03-15T00:58:58.396Z,2.70
2023-03-15T01:09:04.519Z,2.00
2023-03-15T01:19:10.524Z,1.60
2023-03-15T01:29:17.983Z,1.20
2023-03-15T01:39:23.766Z,2.30
2023-03-15T01:49:33.045Z,3.70
2023-03-15T01:59:43.751Z,5.00
2023-03-15T02:09:58.418Z,6.00
2023-03-15T02:20:13.166Z,6.00
2023-03-15T02:30:19.318Z,8.80
2023-03-15T02:40:27.869Z,8.80
2023-03-15T02:50:33.853Z,7.30
2023-03-15T03:00:39.700Z,10.90
2023-03-15T03:10:45.593Z,4.90
2023-03-15T03:20:51.232Z,8.60
2023-03-15T03:30:58.532Z,6.30
2023-03-15T03:41:04.259Z,7.70
2023-03-15T03:51:10.232Z,9.50
2023-03-15T04:01:15.831Z,6.90
2023-03-15T04:11:21.742Z,3.80
2023-03-15T04:21:31.983Z,6.20
2023-03-15T04:31:38.647Z,8.80
2023-03-15T04:51:48.960Z,6.20
2023-03-15T05:01:54.661Z,5.90
2023-03-15T05:12:00.435Z,8.90
2023-03-15T05:22:06.367Z,6.00
2023-03-15T05:32:12.484Z,10.60
2023-03-15T05:42:22.151Z,8.20
2023-03-15T05:52:27.867Z,8.80
2023-03-15T06:02:33.607Z,8.40
2023-03-15T06:12:39.219Z,6.20
2023-03-15T06:22:45.281Z,6.00
2023-03-15T06:32:50.951Z,5.80
2023-03-15T06:42:56.607Z,8.50
2023-03-15T06:53:02.898Z,6.40
2023-03-15T07:03:08.588Z,9.50
2023-03-15T07:13:14.362Z,9.30
2023-03-15T07:23:20.169Z,7.40
2023-03-15T07:33:26.919Z,6.10
2023-03-15T07:43:32.667Z,11.50
2023-03-15T07:53:38.386Z,6.00
2023-03-15T08:03:44.046Z,11.00
2023-03-15T08:13:49.847Z,4.70
2023-03-15T08:23:55.536Z,10.80
2023-03-15T08:34:01.216Z,5.90
2023-03-15T08:44:06.994Z,5.70
2023-03-15T08:54:13.558Z,6.80
2023-03-15T09:04:19.295Z,5.60
2023-03-15T09:14:25.093Z,4.90
2023-03-15T09:24:31.077Z,6.40
2023-03-15T09:34:41.988Z,4.00
2023-03-15T09:44:57.054Z,9.40
2023-03-15T09:55:06.330Z,6.50
2023-03-15T10:05:18.983Z,4.90
2023-03-15T10:15:37.701Z,4.40
2023-03-15T10:25:44.001Z,3.70
2023-03-15T10:35:51.045Z,8.00
2023-03-15T10:46:06.647Z,5.10
2023-03-15T10:56:27.199Z,2.60
2023-03-15T11:06:41.684Z,7.60
2023-03-15T11:16:51.110Z,3.70
2023-03-15T11:27:01.613Z,4.40
2023-03-15T11:37:15.813Z,4.60
2023-03-15T11:47:32.105Z,3.60
2023-03-15T11:57:47.181Z,4.90
2023-03-15T12:08:17.753Z,16.10
2023-03-15T12:18:31.256Z,5.00
2023-03-15T12:28:41.345Z,3.90
2023-03-15T12:39:01.171Z,5.50
2023-03-15T12:49:12.702Z,3.70
2023-03-15T12:59:33.904Z,5.00
2023-03-15T13:09:58.453Z,3.50
2023-03-15T13:20:28.226Z,2.20
2023-03-15T13:30:40.492Z,2.10
2023-03-15T13:40:49.608Z,6.50
2023-03-15T13:51:04.256Z,2.10
2023-03-15T14:01:13.775Z,3.50
2023-03-15T14:11:37.373Z,4.00
2023-03-15T14:21:45.558Z,5.40
2023-03-15T14:31:53.089Z,5.60
2023-03-15T14:41:59.009Z,8.10
2023-03-15T14:52:07.277Z,4.10
2023-03-15T15:02:17.714Z,2.40
2023-03-15T15:12:23.422Z,5.00
2023-03-15T15:22:29.748Z,3.60
2023-03-15T15:32:35.527Z,3.30
2023-03-15T15:42:41.370Z,5.50
2023-03-15T15:52:49.927Z,3.10
2023-03-15T16:02:57.026Z,5.40
2023-03-15T16:13:04.635Z,4.30
2023-03-15T16:23:19.071Z,5.10
2023-03-15T16:33:24.861Z,5.60
2023-03-15T16:43:30.732Z,8.70
2023-03-15T16:53:37.482Z,9.10
2023-03-15T17:03:43.435Z,6.10
2023-03-15T17:13:49.401Z,13.20
2023-03-15T17:23:55.556Z,10.40
2023-03-15T17:34:01.407Z,3.60
2023-03-15T17:44:08.023Z,6.00
2023-03-15T17:54:18.393Z,4.70
2023-03-15T18:04:24.168Z,5.30
2023-03-15T18:14:31.071Z,4.70
2023-03-15T18:24:36.865Z,4.40
2023-03-15T18:34:42.456Z,7.10
2023-03-15T18:44:48.090Z,9.30
2023-03-15T18:54:53.964Z,8.80
2023-03-15T19:05:01.253Z,4.70
2023-03-15T19:15:10.661Z,22.40
2023-03-15T19:25:16.643Z,19.30
2023-03-15T19:35:23.961Z,18.50
2023-03-15T19:45:29.944Z,60.70
2023-03-15T19:55:36.843Z,17.10
2023-03-15T20:05:42.424Z,15.90
2023-03-15T20:15:48.193Z,24.00
2023-03-15T20:26:03.887Z,19.00
2023-03-15T20:36:11.314Z,32.20
2023-03-15T20:46:19.448Z,31.60
2023-03-15T20:56:25.529Z,24.30
2023-03-15T21:16:35.366Z,20.20
2023-03-15T21:26:44.019Z,18.00
2023-03-15T21:36:49.719Z,22.00
2023-03-15T21:46:58.428Z,23.00
2023-03-15T22:07:28.068Z,28.50
2023-03-15T22:17:35.081Z,17.80
2023-03-15T22:27:41.881Z,16.90
2023-03-15T22:37:56.822Z,18.30
2023-03-15T22:48:03.286Z,12.40
2023-03-15T22:58:08.909Z,16.50
2023-03-15T23:08:14.651Z,22.70
2023-03-15T23:18:20.360Z,22.70
2023-03-15T23:28:26.068Z,18.60
2023-03-15T23:38:34.468Z,27.50
2023-03-15T23:48:40.090Z,24.10
2023-03-15T23:58:45.838Z,36.80
